sensor_id;sensor_type;location;lat;lon;timestamp;pressure;altitude;pressure_sealevel;temperature;humidity
17615;BME280;8926;49.720;6.576;2023-02-21T00:02:34;100331.91;;;7.01;81.00
17615;BME280;8926;49.720;6.576;2023-02-21T00:05:18;100329.97;;;7.06;80.30
17615;BME280;8926;49.720;6.576;2023-02-21T00:08:03;100329.88;;;7.09;81.56
17615;BME280;8926;49.720;6.576;2023-02-21T00:10:46;100329.88;;;7.09;81.40
17615;BME280;8926;49.720;6.576;2023-02-21T00:13:30;100328.28;;;7.05;81.03
17615;BME280;8926;49.720;6.576;2023-02-21T00:16:18;100330.22;;;7.00;80.03
17615;BME280;8926;49.720;6.576;2023-02-21T00:19:02;100323.69;;;6.87;79.06
17615;BME280;8926;49.720;6.576;2023-02-21T00:21:46;100322.50;;;6.70;79.12
17615;BME280;8926;49.720;6.576;2023-02-21T00:24:31;100330.59;;;6.60;78.80
17615;BME280;8926;49.720;6.576;2023-02-21T00:27:14;100329.31;;;6.46;78.80
17615;BME280;8926;49.720;6.576;2023-02-21T00:29:59;100334.69;;;6.40;78.58
17615;BME280;8926;49.720;6.576;2023-02-21T00:32:42;100330.59;;;6.32;79.25
17615;BME280;8926;49.720;6.576;2023-02-21T00:35:26;100325.50;;;6.29;79.17
17615;BME280;8926;49.720;6.576;2023-02-21T00:38:11;100329.94;;;6.25;78.92
17615;BME280;8926;49.720;6.576;2023-02-21T00:40:54;100319.00;;;6.16;79.12
17615;BME280;8926;49.720;6.576;2023-02-21T00:43:38;100326.13;;;6.07;79.34
17615;BME280;8926;49.720;6.576;2023-02-21T00:46:23;100323.53;;;6.07;79.37
17615;BME280;8926;49.720;6.576;2023-02-21T00:49:08;100325.38;;;6.04;79.25
17615;BME280;8926;49.720;6.576;2023-02-21T00:51:52;100315.94;;;6.01;78.80
17615;BME280;8926;49.720;6.576;2023-02-21T00:54:36;100319.53;;;5.97;79.59
17615;BME280;8926;49.720;6.576;2023-02-21T00:57:21;100316.13;;;5.95;79.56
17615;BME280;8926;49.720;6.576;2023-02-21T01:00:07;100313.63;;;5.92;79.31
17615;BME280;8926;49.720;6.576;2023-02-21T01:02:51;100304.97;;;5.93;79.59
17615;BME280;8926;49.720;6.576;2023-02-21T01:05:35;100314.44;;;5.94;79.52
17615;BME280;8926;49.720;6.576;2023-02-21T01:08:19;100305.75;;;5.95;79.63
17615;BME280;8926;49.720;6.576;2023-02-21T01:11:03;100300.66;;;5.92;79.09
17615;BME280;8926;49.720;6.576;2023-02-21T01:13:47;100294.66;;;5.90;79.68
17615;BME280;8926;49.720;6.576;2023-02-21T01:16:31;100288.59;;;5.91;79.18
17615;BME280;8926;49.720;6.576;2023-02-21T01:19:16;100291.28;;;5.87;80.12
17615;BME280;8926;49.720;6.576;2023-02-21T01:22:02;100292.97;;;5.88;79.29
17615;BME280;8926;49.720;6.576;2023-02-21T01:24:50;100283.63;;;5.82;79.38
17615;BME280;8926;49.720;6.576;2023-02-21T01:27:35;100282.09;;;5.75;79.24
17615;BME280;8926;49.720;6.576;2023-02-21T01:30:19;100280.69;;;5.65;80.54
17615;BME280;8926;49.720;6.576;2023-02-21T01:33:04;100281.44;;;5.68;79.73
17615;BME280;8926;49.720;6.576;2023-02-21T01:35:48;100273.72;;;5.67;80.18
17615;BME280;8926;49.720;6.576;2023-02-21T01:38:33;100273.88;;;5.61;79.68
17615;BME280;8926;49.720;6.576;2023-02-21T01:41:17;100278.97;;;5.64;79.51
17615;BME280;8926;49.720;6.576;2023-02-21T01:44:06;100271.31;;;5.59;80.48
17615;BME280;8926;49.720;6.576;2023-02-21T01:46:50;100278.25;;;5.59;80.86
17615;BME280;8926;49.720;6.576;2023-02-21T01:49:37;100280.84;;;5.59;79.57
17615;BME280;8926;49.720;6.576;2023-02-21T01:52:22;100274.03;;;5.55;80.04
17615;BME280;8926;49.720;6.576;2023-02-21T01:55:07;100271.44;;;5.55;80.06
17615;BME280;8926;49.720;6.576;2023-02-21T01:57:52;100272.41;;;5.51;79.63
17615;BME280;8926;49.720;6.576;2023-02-21T02:00:37;100270.72;;;5.50;80.69
17615;BME280;8926;49.720;6.576;2023-02-21T02:03:21;100276.78;;;5.49;80.40
17615;BME280;8926;49.720;6.576;2023-02-21T02:06:12;100274.19;;;5.49;79.80
17615;BME280;8926;49.720;6.576;2023-02-21T02:08:56;100265.53;;;5.50;80.71
17615;BME280;8926;49.720;6.576;2023-02-21T02:11:49;100259.50;;;5.49;81.18
17615;BME280;8926;49.720;6.576;2023-02-21T02:17:32;100251.03;;;5.44;81.49
17615;BME280;8926;49.720;6.576;2023-02-21T02:20:28;100248.41;;;5.45;80.35
17615;BME280;8926;49.720;6.576;2023-02-21T02:34:30;100244.88;;;5.46;81.40
17615;BME280;8926;49.720;6.576;2023-02-21T02:37:30;100240.72;;;5.42;81.21
17615;BME280;8926;49.720;6.576;2023-02-21T02:40:02;100236.34;;;5.44;81.22
17615;BME280;8926;49.720;6.576;2023-02-21T02:42:55;100245.84;;;5.44;81.93
17615;BME280;8926;49.720;6.576;2023-02-21T02:45:31;100245.00;;;5.43;80.02
17615;BME280;8926;49.720;6.576;2023-02-21T02:48:02;100247.84;;;5.34;79.49
17615;BME280;8926;49.720;6.576;2023-02-21T02:50:31;100248.88;;;5.27;80.85
17615;BME280;8926;49.720;6.576;2023-02-21T02:53:00;100245.47;;;5.25;80.44
17615;BME280;8926;49.720;6.576;2023-02-21T02:55:47;100242.00;;;5.26;79.71
17615;BME280;8926;49.720;6.576;2023-02-21T02:58:15;100247.19;;;5.26;79.87
17615;BME280;8926;49.720;6.576;2023-02-21T03:00:44;100244.59;;;5.26;80.59
17615;BME280;8926;49.720;6.576;2023-02-21T03:06:39;100236.97;;;5.20;80.85
17615;BME280;8926;49.720;6.576;2023-02-21T03:09:24;100233.69;;;5.15;81.52
17615;BME280;8926;49.720;6.576;2023-02-21T03:12:04;100232.00;;;5.14;81.25
17615;BME280;8926;49.720;6.576;2023-02-21T03:14:37;100226.81;;;5.14;80.61
17615;BME280;8926;49.720;6.576;2023-02-21T03:17:08;100225.03;;;5.16;80.36
17615;BME280;8926;49.720;6.576;2023-02-21T03:19:38;100218.22;;;5.12;80.06
17615;BME280;8926;49.720;6.576;2023-02-21T03:24:33;100211.66;;;4.99;79.91
17615;BME280;8926;49.720;6.576;2023-02-21T03:27:03;100216.84;;;4.99;80.31
17615;BME280;8926;49.720;6.576;2023-02-21T03:29:30;100218.69;;;4.94;80.81
17615;BME280;8926;49.720;6.576;2023-02-21T03:32:09;100222.91;;;4.98;79.85
17615;BME280;8926;49.720;6.576;2023-02-21T03:34:38;100223.06;;;4.93;79.06
17615;BME280;8926;49.720;6.576;2023-02-21T03:37:05;100232.81;;;4.82;79.73
17615;BME280;8926;49.720;6.576;2023-02-21T03:39:31;100237.34;;;4.74;79.93
17615;BME280;8926;49.720;6.576;2023-02-21T03:41:56;100238.19;;;4.74;80.11
17615;BME280;8926;49.720;6.576;2023-02-21T03:44:22;100238.09;;;4.77;79.83
17615;BME280;8926;49.720;6.576;2023-02-21T03:46:47;100239.84;;;4.77;80.88
17615;BME280;8926;49.720;6.576;2023-02-21T03:49:12;100244.25;;;4.73;80.41
17615;BME280;8926;49.720;6.576;2023-02-21T03:51:38;100235.63;;;4.73;80.44
17615;BME280;8926;49.720;6.576;2023-02-21T03:54:03;100240.81;;;4.73;79.52
17615;BME280;8926;49.720;6.576;2023-02-21T03:56:28;100236.66;;;4.67;80.19
17615;BME280;8926;49.720;6.576;2023-02-21T03:58:53;100247.16;;;4.61;80.56
17615;BME280;8926;49.720;6.576;2023-02-21T04:01:19;100255.03;;;4.57;81.05
17615;BME280;8926;49.720;6.576;2023-02-21T04:03:44;100253.28;;;4.57;80.69
17615;BME280;8926;49.720;6.576;2023-02-21T04:06:09;100255.72;;;4.63;80.65
17615;BME280;8926;49.720;6.576;2023-02-21T04:08:35;100255.72;;;4.63;80.89
17615;BME280;8926;49.720;6.576;2023-02-21T04:11:00;100255.72;;;4.63;79.91
17615;BME280;8926;49.720;6.576;2023-02-21T04:13:25;100258.44;;;4.59;81.02
17615;BME280;8926;49.720;6.576;2023-02-21T04:15:51;100252.47;;;4.55;80.79
17615;BME280;8926;49.720;6.576;2023-02-21T04:18:16;100257.72;;;4.52;81.22
17615;BME280;8926;49.720;6.576;2023-02-21T04:20:41;100255.94;;;4.54;80.43
17615;BME280;8926;49.720;6.576;2023-02-21T04:23:06;100252.53;;;4.52;79.64
17615;BME280;8926;49.720;6.576;2023-02-21T04:25:32;100250.91;;;4.48;79.26
17615;BME280;8926;49.720;6.576;2023-02-21T04:27:57;100252.75;;;4.43;79.85
17615;BME280;8926;49.720;6.576;2023-02-21T04:30:22;100252.75;;;4.43;80.22
17615;BME280;8926;49.720;6.576;2023-02-21T04:32:48;100257.03;;;4.44;79.91
17615;BME280;8926;49.720;6.576;2023-02-21T04:35:14;100259.63;;;4.44;79.19
17615;BME280;8926;49.720;6.576;2023-02-21T04:37:39;100256.38;;;4.36;79.41
17615;BME280;8926;49.720;6.576;2023-02-21T04:40:05;100256.44;;;4.33;80.24
17615;BME280;8926;49.720;6.576;2023-02-21T04:42:30;100258.28;;;4.28;80.71
17615;BME280;8926;49.720;6.576;2023-02-21T04:44:55;100260.13;;;4.23;80.77
17615;BME280;8926;49.720;6.576;2023-02-21T04:47:21;100254.03;;;4.25;80.86
17615;BME280;8926;49.720;6.576;2023-02-21T04:49:46;100254.81;;;4.29;81.10
17615;BME280;8926;49.720;6.576;2023-02-21T04:52:16;100256.53;;;4.30;80.60
17615;BME280;8926;49.720;6.576;2023-02-21T04:54:44;100248.72;;;4.31;80.55
17615;BME280;8926;49.720;6.576;2023-02-21T04:57:09;100251.28;;;4.33;80.31
17615;BME280;8926;49.720;6.576;2023-02-21T04:59:35;100251.22;;;4.36;79.84
17615;BME280;8926;49.720;6.576;2023-02-21T05:02:00;100244.34;;;4.35;79.85
17615;BME280;8926;49.720;6.576;2023-02-21T05:04:25;100247.88;;;4.31;79.97
17615;BME280;8926;49.720;6.576;2023-02-21T05:06:51;100246.19;;;4.30;80.28
17615;BME280;8926;49.720;6.576;2023-02-21T05:09:16;100240.09;;;4.32;79.69
17615;BME280;8926;49.720;6.576;2023-02-21T05:11:41;100241.94;;;4.26;79.54
17615;BME280;8926;49.720;6.576;2023-02-21T05:14:07;100239.50;;;4.20;79.33
17615;BME280;8926;49.720;6.576;2023-02-21T05:16:32;100239.50;;;4.20;79.10
17615;BME280;8926;49.720;6.576;2023-02-21T05:18:57;100232.63;;;4.19;78.94
17615;BME280;8926;49.720;6.576;2023-02-21T05:21:23;100237.97;;;4.13;79.31
17615;BME280;8926;49.720;6.576;2023-02-21T05:23:48;100239.75;;;4.09;80.05
17615;BME280;8926;49.720;6.576;2023-02-21T05:26:25;100237.97;;;4.13;79.49
17615;BME280;8926;49.720;6.576;2023-02-21T05:28:51;100242.22;;;4.15;79.16
17615;BME280;8926;49.720;6.576;2023-02-21T05:31:17;100236.09;;;4.18;79.58
17615;BME280;8926;49.720;6.576;2023-02-21T05:33:43;100230.03;;;4.19;79.63
17615;BME280;8926;49.720;6.576;2023-02-21T05:36:08;100234.31;;;4.20;79.21
17615;BME280;8926;49.720;6.576;2023-02-21T05:38:43;100237.69;;;4.23;79.28
17615;BME280;8926;49.720;6.576;2023-02-21T05:41:08;100240.31;;;4.22;79.76
17615;BME280;8926;49.720;6.576;2023-02-21T05:43:33;100230.88;;;4.21;79.82
17615;BME280;8926;49.720;6.576;2023-02-21T05:45:59;100233.47;;;4.19;78.67
17615;BME280;8926;49.720;6.576;2023-02-21T05:48:24;100232.63;;;4.19;78.80
17615;BME280;8926;49.720;6.576;2023-02-21T05:50:49;100231.78;;;4.18;79.69
17615;BME280;8926;49.720;6.576;2023-02-21T05:53:14;100230.06;;;4.17;78.53
17615;BME280;8926;49.720;6.576;2023-02-21T05:55:40;100231.09;;;4.12;78.51
17615;BME280;8926;49.720;6.576;2023-02-21T05:58:05;100227.81;;;4.03;78.75
17615;BME280;8926;49.720;6.576;2023-02-21T06:00:31;100230.53;;;3.97;79.50
17615;BME280;8926;49.720;6.576;2023-02-21T06:02:56;100222.03;;;3.92;79.27
17615;BME280;8926;49.720;6.576;2023-02-21T06:05:22;100242.03;;;3.84;79.73
17615;BME280;8926;49.720;6.576;2023-02-21T06:07:48;100237.03;;;3.77;80.34
17615;BME280;8926;49.720;6.576;2023-02-21T06:12:39;100238.00;;;3.71;80.51
17615;BME280;8926;49.720;6.576;2023-02-21T06:15:05;100237.94;;;3.74;80.92
17615;BME280;8926;49.720;6.576;2023-02-21T06:17:32;100242.22;;;3.75;79.83
17615;BME280;8926;49.720;6.576;2023-02-21T06:19:57;100239.66;;;3.73;79.81
17615;BME280;8926;49.720;6.576;2023-02-21T06:22:22;100240.56;;;3.71;79.78
17615;BME280;8926;49.720;6.576;2023-02-21T06:24:48;100239.94;;;3.61;79.93
17615;BME280;8926;49.720;6.576;2023-02-21T06:27:13;100239.97;;;3.60;80.59
17615;BME280;8926;49.720;6.576;2023-02-21T06:29:39;100245.97;;;3.62;79.97
17615;BME280;8926;49.720;6.576;2023-02-21T06:32:05;100248.34;;;3.69;80.97
17615;BME280;8926;49.720;6.576;2023-02-21T06:34:30;100242.09;;;3.81;81.43
17615;BME280;8926;49.720;6.576;2023-02-21T06:36:56;100249.81;;;3.83;81.60
17615;BME280;8926;49.720;6.576;2023-02-21T06:39:22;100243.75;;;3.85;81.30
17615;BME280;8926;49.720;6.576;2023-02-21T06:41:49;100247.22;;;3.84;81.56
17615;BME280;8926;49.720;6.576;2023-02-21T06:44:15;100250.59;;;3.86;81.44
17615;BME280;8926;49.720;6.576;2023-02-21T06:46:41;100246.22;;;3.90;81.13
17615;BME280;8926;49.720;6.576;2023-02-21T06:49:07;100252.09;;;3.96;81.98
17615;BME280;8926;49.720;6.576;2023-02-21T06:51:34;100255.41;;;4.03;81.77
17615;BME280;8926;49.720;6.576;2023-02-21T06:53:59;100256.25;;;4.03;81.20
17615;BME280;8926;49.720;6.576;2023-02-21T06:56:25;100247.63;;;4.04;80.96
17615;BME280;8926;49.720;6.576;2023-02-21T06:58:51;100253.56;;;4.08;80.74
17615;BME280;8926;49.720;6.576;2023-02-21T07:01:17;100255.25;;;4.11;80.09
17615;BME280;8926;49.720;6.576;2023-02-21T07:03:43;100246.53;;;4.15;80.10
17615;BME280;8926;49.720;6.576;2023-02-21T07:06:09;100246.38;;;4.21;80.08
17615;BME280;8926;49.720;6.576;2023-02-21T07:08:35;100245.56;;;4.19;80.38
17615;BME280;8926;49.720;6.576;2023-02-21T07:11:00;100255.00;;;4.20;80.26
17615;BME280;8926;49.720;6.576;2023-02-21T07:13:25;100252.34;;;4.24;80.37
17615;BME280;8926;49.720;6.576;2023-02-21T07:15:51;100255.66;;;4.29;80.07
17615;BME280;8926;49.720;6.576;2023-02-21T07:18:16;100256.53;;;4.30;79.78
17615;BME280;8926;49.720;6.576;2023-02-21T07:20:41;100252.22;;;4.29;79.81
17615;BME280;8926;49.720;6.576;2023-02-21T07:23:07;100254.81;;;4.29;80.69
17615;BME280;8926;49.720;6.576;2023-02-21T07:25:32;100261.75;;;4.27;80.51
17615;BME280;8926;49.720;6.576;2023-02-21T07:27:57;100254.81;;;4.29;80.00
17615;BME280;8926;49.720;6.576;2023-02-21T07:30:23;100251.34;;;4.30;79.94
17615;BME280;8926;49.720;6.576;2023-02-21T07:32:48;100258.34;;;4.25;79.76
17615;BME280;8926;49.720;6.576;2023-02-21T07:35:13;100252.41;;;4.21;79.60
17615;BME280;8926;49.720;6.576;2023-02-21T07:37:39;100255.81;;;4.23;80.69
17615;BME280;8926;49.720;6.576;2023-02-21T07:40:04;100263.41;;;4.31;81.02
17615;BME280;8926;49.720;6.576;2023-02-21T07:42:33;100261.31;;;4.45;80.61
17615;BME280;8926;49.720;6.576;2023-02-21T07:44:58;100259.47;;;4.50;80.56
17615;BME280;8926;49.720;6.576;2023-02-21T07:47:25;100249.06;;;4.53;80.55
17615;BME280;8926;49.720;6.576;2023-02-21T07:49:51;100251.16;;;4.73;79.50
17615;BME280;8926;49.720;6.576;2023-02-21T07:52:19;100251.88;;;4.80;79.49
17615;BME280;8926;49.720;6.576;2023-02-21T07:54:45;100248.16;;;4.90;79.19
17615;BME280;8926;49.720;6.576;2023-02-21T07:57:10;100245.72;;;4.84;79.53
17615;BME280;8926;49.720;6.576;2023-02-21T07:59:36;100236.19;;;4.86;79.46
17615;BME280;8926;49.720;6.576;2023-02-21T08:02:02;100245.97;;;4.73;79.11
17615;BME280;8926;49.720;6.576;2023-02-21T08:04:28;100245.53;;;4.57;80.18
17615;BME280;8926;49.720;6.576;2023-02-21T08:07:00;100234.84;;;4.69;80.54
17615;BME280;8926;49.720;6.576;2023-02-21T08:09:26;100231.00;;;4.86;80.90
17615;BME280;8926;49.720;6.576;2023-02-21T08:11:52;100232.31;;;5.02;80.89
17615;BME280;8926;49.720;6.576;2023-02-21T08:14:17;100228.16;;;5.27;79.92
17615;BME280;8926;49.720;6.576;2023-02-21T08:16:43;100227.13;;;5.64;79.54
17615;BME280;8926;49.720;6.576;2023-02-21T08:19:09;100219.72;;;5.81;78.65
17615;BME280;8926;49.720;6.576;2023-02-21T08:21:35;100227.09;;;5.96;77.99
17615;BME280;8926;49.720;6.576;2023-02-21T08:24:00;100219.53;;;6.17;76.76
17615;BME280;8926;49.720;6.576;2023-02-21T08:26:25;100220.34;;;6.19;76.44
17615;BME280;8926;49.720;6.576;2023-02-21T08:28:51;100217.91;;;6.40;76.49
17615;BME280;8926;49.720;6.576;2023-02-21T08:31:16;100218.81;;;6.39;76.02
17615;BME280;8926;49.720;6.576;2023-02-21T08:33:41;100212.06;;;6.60;76.08
17615;BME280;8926;49.720;6.576;2023-02-21T08:36:07;100209.22;;;6.68;74.93
17615;BME280;8926;49.720;6.576;2023-02-21T08:38:32;100212.34;;;7.27;74.82
17615;BME280;8926;49.720;6.576;2023-02-21T08:40:57;100210.88;;;7.67;72.04
17615;BME280;8926;49.720;6.576;2023-02-21T08:43:23;100205.47;;;7.49;72.93
17615;BME280;8926;49.720;6.576;2023-02-21T08:45:49;100201.72;;;7.33;72.91
17615;BME280;8926;49.720;6.576;2023-02-21T08:48:15;100203.50;;;7.08;74.03
17615;BME280;8926;49.720;6.576;2023-02-21T08:50:40;100204.03;;;6.93;75.11
17615;BME280;8926;49.720;6.576;2023-02-21T08:53:05;100204.53;;;6.77;75.72
17615;BME280;8926;49.720;6.576;2023-02-21T08:55:31;100199.16;;;6.84;76.44
17615;BME280;8926;49.720;6.576;2023-02-21T08:57:56;100204.66;;;6.74;76.43
17615;BME280;8926;49.720;6.576;2023-02-21T09:00:23;100198.69;;;6.72;76.59
17615;BME280;8926;49.720;6.576;2023-02-21T09:02:52;100203.28;;;6.64;77.03
17615;BME280;8926;49.720;6.576;2023-02-21T09:05:22;100213.06;;;6.56;78.50
17615;BME280;8926;49.720;6.576;2023-02-21T09:07:55;100211.97;;;6.63;78.50
17615;BME280;8926;49.720;6.576;2023-02-21T09:10:24;100209.25;;;6.66;80.00
17615;BME280;8926;49.720;6.576;2023-02-21T09:12:49;100213.34;;;6.73;80.25
17615;BME280;8926;49.720;6.576;2023-02-21T09:15:15;100209.72;;;6.77;79.72
17615;BME280;8926;49.720;6.576;2023-02-21T09:17:41;100208.47;;;6.89;79.74
17615;BME280;8926;49.720;6.576;2023-02-21T09:20:09;100200.91;;;7.08;79.05
17615;BME280;8926;49.720;6.576;2023-02-21T09:22:34;100204.09;;;7.39;77.97
17615;BME280;8926;49.720;6.576;2023-02-21T09:25:00;100191.72;;;7.69;77.35
17615;BME280;8926;49.720;6.576;2023-02-21T09:27:26;100196.34;;;8.06;76.89
17615;BME280;8926;49.720;6.576;2023-02-21T09:30:14;100181.91;;;8.63;75.12
17615;BME280;8926;49.720;6.576;2023-02-21T09:32:39;100176.41;;;9.10;73.55
17615;BME280;8926;49.720;6.576;2023-02-21T09:35:06;100169.88;;;9.59;72.23
17615;BME280;8926;49.720;6.576;2023-02-21T09:37:31;100167.47;;;9.73;71.20
17615;BME280;8926;49.720;6.576;2023-02-21T09:39:57;100171.13;;;9.69;70.68
17615;BME280;8926;49.720;6.576;2023-02-21T09:42:28;100165.88;;;9.88;70.79
17615;BME280;8926;49.720;6.576;2023-02-21T09:44:54;100160.78;;;10.23;70.37
17615;BME280;8926;49.720;6.576;2023-02-21T09:47:34;100152.50;;;10.83;68.36
17615;BME280;8926;49.720;6.576;2023-02-21T09:50:04;100153.16;;;11.37;66.73
17615;BME280;8926;49.720;6.576;2023-02-21T09:52:35;100154.53;;;11.76;65.05
17615;BME280;8926;49.720;6.576;2023-02-21T09:55:11;100139.84;;;12.20;64.50
17615;BME280;8926;49.720;6.576;2023-02-21T09:57:38;100131.34;;;12.47;63.15
17615;BME280;8926;49.720;6.576;2023-02-21T10:00:18;100130.09;;;12.97;61.76
17615;BME280;8926;49.720;6.576;2023-02-21T10:14:22;100104.00;;;14.58;57.26
17615;BME280;8926;49.720;6.576;2023-02-21T10:19:33;100108.94;;;15.13;57.33
17615;BME280;8926;49.720;6.576;2023-02-21T10:22:08;100104.22;;;15.31;56.91
17615;BME280;8926;49.720;6.576;2023-02-21T10:24:36;100105.41;;;15.51;56.23
17615;BME280;8926;49.720;6.576;2023-02-21T10:27:06;100100.53;;;15.70;57.46
17615;BME280;8926;49.720;6.576;2023-02-21T10:32:07;100085.56;;;16.18;54.48
17615;BME280;8926;49.720;6.576;2023-02-21T10:34:33;100085.84;;;16.38;54.17
17615;BME280;8926;49.720;6.576;2023-02-21T10:37:14;100083.75;;;16.54;55.36
17615;BME280;8926;49.720;6.576;2023-02-21T10:39:46;100074.47;;;16.83;53.53
17615;BME280;8926;49.720;6.576;2023-02-21T10:42:25;100073.53;;;17.07;52.44
17615;BME280;8926;49.720;6.576;2023-02-21T10:44:53;100071.34;;;17.34;52.47
17615;BME280;8926;49.720;6.576;2023-02-21T10:47:25;100062.66;;;17.54;52.04
17615;BME280;8926;49.720;6.576;2023-02-21T10:49:59;100064.34;;;17.55;50.75
17615;BME280;8926;49.720;6.576;2023-02-21T10:52:26;100069.00;;;17.74;51.61
17615;BME280;8926;49.720;6.576;2023-02-21T10:57:27;100055.81;;;17.95;49.83
17615;BME280;8926;49.720;6.576;2023-02-21T10:59:54;100044.25;;;18.07;49.85
17615;BME280;8926;49.720;6.576;2023-02-21T11:02:32;100041.94;;;18.14;48.46
17615;BME280;8926;49.720;6.576;2023-02-21T11:05:08;100038.34;;;18.36;49.50
17615;BME280;8926;49.720;6.576;2023-02-21T11:07:35;100045.56;;;18.34;49.35
17615;BME280;8926;49.720;6.576;2023-02-21T11:10:01;100031.44;;;18.44;48.08
17615;BME280;8926;49.720;6.576;2023-02-21T11:12:28;100033.28;;;18.74;49.11
17615;BME280;8926;49.720;6.576;2023-02-21T11:17:29;100018.94;;;18.56;47.90
17615;BME280;8926;49.720;6.576;2023-02-21T11:25:03;100011.88;;;18.36;48.37
17615;BME280;8926;49.720;6.576;2023-02-21T11:27:33;100002.06;;;18.26;48.04
17615;BME280;8926;49.720;6.576;2023-02-21T11:30:02;99998.88;;;18.53;48.86
17615;BME280;8926;49.720;6.576;2023-02-21T11:32:31;99993.41;;;18.66;48.24
17615;BME280;8926;49.720;6.576;2023-02-21T11:37:49;99990.22;;;18.51;48.00
17615;BME280;8926;49.720;6.576;2023-02-21T11:40:43;99976.00;;;18.43;48.00
17615;BME280;8926;49.720;6.576;2023-02-21T11:43:25;99982.47;;;18.29;48.12
17615;BME280;8926;49.720;6.576;2023-02-21T11:51:53;99969.84;;;17.91;49.51
17615;BME280;8926;49.720;6.576;2023-02-21T11:54:24;99965.56;;;18.00;50.12
17615;BME280;8926;49.720;6.576;2023-02-21T11:57:17;99958.16;;;18.14;49.94
17615;BME280;8926;49.720;6.576;2023-02-21T11:59:54;99959.22;;;18.33;49.72
17615;BME280;8926;49.720;6.576;2023-02-21T12:05:28;99954.41;;;18.38;50.43
17615;BME280;8926;49.720;6.576;2023-02-21T12:22:09;99918.50;;;18.75;49.72
17615;BME280;8926;49.720;6.576;2023-02-21T12:25:07;99915.97;;;18.64;48.94
17615;BME280;8926;49.720;6.576;2023-02-21T12:30:53;99903.75;;;18.82;49.63
17615;BME280;8926;49.720;6.576;2023-02-21T12:39:15;99900.53;;;18.69;49.64
17615;BME280;8926;49.720;6.576;2023-02-21T12:42:18;99901.75;;;18.65;50.21
17615;BME280;8926;49.720;6.576;2023-02-21T12:45:26;99893.13;;;18.63;49.47
17615;BME280;8926;49.720;6.576;2023-02-21T12:50:35;99883.28;;;18.54;50.61
17615;BME280;8926;49.720;6.576;2023-02-21T12:55:36;99872.84;;;18.43;50.21
17615;BME280;8926;49.720;6.576;2023-02-21T12:58:27;99860.44;;;18.53;49.85
17615;BME280;8926;49.720;6.576;2023-02-21T13:01:20;99864.06;;;18.52;48.19
17615;BME280;8926;49.720;6.576;2023-02-21T13:06:33;99861.28;;;18.44;45.36
17615;BME280;8926;49.720;6.576;2023-02-21T13:11:41;99860.53;;;18.02;44.92
17615;BME280;8926;49.720;6.576;2023-02-21T13:14:15;99851.75;;;18.01;45.62
17615;BME280;8926;49.720;6.576;2023-02-21T13:16:41;99846.28;;;17.93;44.95
17615;BME280;8926;49.720;6.576;2023-02-21T13:19:09;99845.94;;;17.77;44.02
17615;BME280;8926;49.720;6.576;2023-02-21T13:29:47;99829.28;;;17.44;44.72
17615;BME280;8926;49.720;6.576;2023-02-21T13:32:16;99829.59;;;17.51;44.70
17615;BME280;8926;49.720;6.576;2023-02-21T13:34:47;99826.84;;;17.52;44.08
17615;BME280;8926;49.720;6.576;2023-02-21T13:37:21;99819.38;;;17.57;43.45
17615;BME280;8926;49.720;6.576;2023-02-21T13:39:52;99826.56;;;17.55;43.96
17615;BME280;8926;49.720;6.576;2023-02-21T13:42:25;99808.53;;;17.60;43.84
17615;BME280;8926;49.720;6.576;2023-02-21T13:44:55;99806.16;;;17.57;43.95
17615;BME280;8926;49.720;6.576;2023-02-21T13:55:38;99810.03;;;17.33;43.14
17615;BME280;8926;49.720;6.576;2023-02-21T14:03:04;99796.09;;;17.30;44.18
17615;BME280;8926;49.720;6.576;2023-02-21T14:08:28;99794.31;;;17.31;42.09
17615;BME280;8926;49.720;6.576;2023-02-21T14:10:57;99796.56;;;17.15;43.57
17615;BME280;8926;49.720;6.576;2023-02-21T14:13:30;99793.22;;;17.13;44.89
17615;BME280;8926;49.720;6.576;2023-02-21T14:15:59;99789.53;;;17.04;44.29
17615;BME280;8926;49.720;6.576;2023-02-21T14:23:50;99785.25;;;16.92;44.45
17615;BME280;8926;49.720;6.576;2023-02-21T14:31:54;99779.00;;;16.93;44.87
17615;BME280;8926;49.720;6.576;2023-02-21T14:36:57;99771.03;;;16.83;45.22
17615;BME280;8926;49.720;6.576;2023-02-21T14:39:29;99773.69;;;16.72;45.50
17615;BME280;8926;49.720;6.576;2023-02-21T14:44:41;99755.00;;;16.64;45.31
17615;BME280;8926;49.720;6.576;2023-02-21T14:56:11;99756.47;;;16.46;45.27
17615;BME280;8926;49.720;6.576;2023-02-21T15:07:23;99746.22;;;16.32;46.35
17615;BME280;8926;49.720;6.576;2023-02-21T15:10:06;99742.38;;;16.24;46.40
17615;BME280;8926;49.720;6.576;2023-02-21T15:12:40;99739.28;;;16.19;46.83
17615;BME280;8926;49.720;6.576;2023-02-21T15:15:14;99751.97;;;16.14;47.58
17615;BME280;8926;49.720;6.576;2023-02-21T15:17:40;99744.59;;;16.08;47.63
17615;BME280;8926;49.720;6.576;2023-02-21T15:20:13;99742.44;;;16.02;47.97
17615;BME280;8926;49.720;6.576;2023-02-21T15:22:39;99747.56;;;15.92;48.26
17615;BME280;8926;49.720;6.576;2023-02-21T15:27:34;99741.47;;;15.70;49.70
17615;BME280;8926;49.720;6.576;2023-02-21T15:30:33;99739.94;;;15.56;50.05
17615;BME280;8926;49.720;6.576;2023-02-21T15:33:05;99745.25;;;15.43;50.39
17615;BME280;8926;49.720;6.576;2023-02-21T15:35:34;99739.84;;;15.34;50.56
17615;BME280;8926;49.720;6.576;2023-02-21T15:38:02;99750.38;;;15.22;51.43
17615;BME280;8926;49.720;6.576;2023-02-21T15:40:30;99750.44;;;15.10;51.78
17615;BME280;8926;49.720;6.576;2023-02-21T15:42:55;99746.56;;;14.91;52.58
17615;BME280;8926;49.720;6.576;2023-02-21T15:45:40;99744.03;;;14.79;52.75
17615;BME280;8926;49.720;6.576;2023-02-21T15:48:07;99744.09;;;14.66;52.87
17615;BME280;8926;49.720;6.576;2023-02-21T15:50:45;99745.59;;;14.57;53.39
17615;BME280;8926;49.720;6.576;2023-02-21T15:53:16;99745.44;;;14.48;53.48
17615;BME280;8926;49.720;6.576;2023-02-21T15:55:43;99742.47;;;14.40;53.75
17615;BME280;8926;49.720;6.576;2023-02-21T15:58:23;99747.34;;;14.33;53.37
17615;BME280;8926;49.720;6.576;2023-02-21T16:06:29;99742.38;;;14.05;54.61
17615;BME280;8926;49.720;6.576;2023-02-21T16:16:44;99741.63;;;13.66;55.30
17615;BME280;8926;49.720;6.576;2023-02-21T16:19:10;99740.16;;;13.62;55.52
17615;BME280;8926;49.720;6.576;2023-02-21T16:21:36;99737.63;;;13.61;55.05
17615;BME280;8926;49.720;6.576;2023-02-21T16:24:34;99734.06;;;13.62;54.99